Terminal Aerodrome Forecast
Issued by NWS

Home | Current Version | Previous Version | Text Only | Print | Product List | Glossary On
Versions: 1 2 3 4 5 6 7 8 9 10 11 12 13 14 15 16 17 18
562
FTPA31 PHFO 181727
TAFHKO
TAF
PHKO 181727Z 1818/1918 12008KT P6SM FEW030
     FM182000 20010KT P6SM FEW035 SCT060
     FM190500 13006KT P6SM FEW030 BKN060=

USA.gov is the U.S. government's official web portal to all federal, state and local government web resources and services.